createdAt,value
2018-04-08T00:02:07.402Z,81.82
2018-04-08T00:04:34.872Z,80.99
2018-04-08T00:07:02.355Z,80.93
2018-04-08T00:09:29.821Z,81.00
2018-04-08T00:11:57.295Z,80.98
2018-04-08T00:14:24.755Z,80.92
2018-04-08T00:16:52.216Z,80.87
2018-04-08T00:19:19.701Z,81.30
2018-04-08T00:21:47.180Z,80.88
2018-04-08T00:24:14.665Z,80.34
2018-04-08T00:26:42.116Z,80.71
2018-04-08T00:29:09.643Z,80.03
2018-04-08T00:31:37.103Z,80.01
2018-04-08T00:34:04.567Z,80.52
2018-04-08T00:36:32.037Z,80.62
2018-04-08T00:38:59.518Z,80.38
2018-04-08T00:41:26.992Z,80.36
2018-04-08T00:43:54.659Z,80.19
2018-04-08T00:46:22.116Z,79.79
2018-04-08T00:48:49.607Z,80.11
2018-04-08T00:51:17.075Z,79.93
2018-04-08T00:53:44.591Z,80.34
2018-04-08T00:56:12.063Z,80.42
2018-04-08T00:58:39.564Z,80.32
2018-04-08T01:01:07.038Z,80.87
2018-04-08T01:03:34.515Z,81.28
2018-04-08T01:06:02.134Z,81.35
2018-04-08T01:08:29.700Z,80.82
2018-04-08T01:10:57.166Z,80.82
2018-04-08T01:13:24.645Z,80.52
2018-04-08T01:15:52.095Z,80.66
2018-04-08T01:18:19.579Z,81.02
2018-04-08T01:20:47.036Z,81.13
2018-04-08T01:23:14.503Z,80.86
2018-04-08T01:25:41.976Z,81.05
2018-04-08T01:28:09.456Z,81.29
2018-04-08T01:30:36.919Z,81.66
2018-04-08T01:33:04.385Z,81.53
2018-04-08T01:35:31.856Z,81.93
2018-04-08T01:37:59.372Z,82.37
2018-04-08T01:40:26.823Z,82.60
2018-04-08T01:42:54.275Z,82.69
2018-04-08T01:45:21.735Z,82.92
2018-04-08T01:47:49.193Z,82.82
2018-04-08T01:50:16.647Z,83.16
2018-04-08T01:52:44.124Z,83.41
2018-04-08T01:55:11.638Z,83.41
2018-04-08T01:57:39.089Z,83.40
2018-04-08T02:00:06.573Z,83.72
2018-04-08T02:02:34.029Z,83.72
2018-04-08T02:05:01.488Z,83.41
2018-04-08T02:07:28.970Z,82.83
2018-04-08T02:09:56.609Z,82.33
2018-04-08T02:12:24.090Z,82.35
2018-04-08T02:14:51.568Z,82.55
2018-04-08T02:17:19.051Z,82.72
2018-04-08T02:19:46.522Z,82.52
2018-04-08T02:22:13.995Z,82.21
2018-04-08T02:24:41.451Z,82.38
2018-04-08T02:27:08.931Z,82.51
2018-04-08T02:29:36.423Z,82.18
2018-04-08T02:32:03.902Z,82.01
2018-04-08T02:34:31.454Z,81.85
2018-04-08T02:36:58.905Z,81.81
2018-04-08T02:39:26.353Z,81.69
2018-04-08T02:41:53.852Z,81.75
2018-04-08T02:44:21.344Z,81.69
2018-04-08T02:46:48.841Z,82.00
2018-04-08T02:49:16.321Z,82.02
2018-04-08T02:51:43.788Z,82.13
2018-04-08T02:54:11.251Z,82.51
2018-04-08T02:56:38.716Z,82.84
2018-04-08T02:59:06.183Z,83.02
2018-04-08T03:01:33.644Z,83.49
2018-04-08T03:04:01.101Z,83.37
2018-04-08T03:06:28.564Z,83.40
2018-04-08T03:08:56.091Z,83.60
2018-04-08T03:11:23.552Z,83.54
2018-04-08T03:13:51.025Z,83.41
2018-04-08T03:16:18.532Z,83.70
2018-04-08T03:18:46.120Z,83.76
2018-04-08T03:21:13.588Z,83.71
2018-04-08T03:23:41.054Z,83.92
2018-04-08T03:26:08.502Z,84.23
2018-04-08T03:28:35.962Z,84.37
2018-04-08T03:31:03.433Z,84.64
2018-04-08T03:33:30.898Z,84.81
2018-04-08T03:35:58.360Z,84.93
2018-04-08T03:38:25.821Z,85.12
2018-04-08T03:40:53.280Z,85.28
2018-04-08T03:43:20.749Z,85.40
2018-04-08T03:45:48.217Z,85.57
2018-04-08T03:48:15.756Z,85.74
2018-04-08T03:50:43.247Z,85.86
2018-04-08T03:53:10.708Z,85.84
2018-04-08T03:55:38.178Z,85.92
2018-04-08T03:58:05.646Z,85.98
2018-04-08T04:00:33.213Z,86.31
2018-04-08T04:03:00.769Z,86.23
2018-04-08T04:05:28.668Z,86.27
2018-04-08T04:07:56.128Z,86.71
2018-04-08T04:10:23.677Z,86.68
2018-04-08T04:12:51.148Z,86.76
2018-04-08T04:15:18.608Z,86.81
2018-04-08T04:17:46.063Z,87.26
2018-04-08T04:20:25.359Z,87.22
2018-04-08T04:23:04.504Z,87.19
2018-04-08T04:28:34.388Z,87.59
2018-04-08T04:31:01.847Z,87.53
2018-04-08T04:33:29.307Z,87.48
2018-04-08T04:35:56.793Z,87.70
2018-04-08T04:38:24.290Z,87.87
2018-04-08T04:40:51.750Z,87.54
2018-04-08T04:43:19.219Z,87.41
2018-04-08T04:45:46.669Z,87.07
2018-04-08T04:48:14.172Z,86.75
2018-04-08T04:50:41.671Z,86.48
2018-04-08T04:53:09.131Z,86.44
2018-04-08T04:55:36.619Z,86.56
2018-04-08T04:58:04.119Z,86.31
2018-04-08T05:00:31.614Z,86.45
2018-04-08T05:02:59.091Z,86.41
2018-04-08T05:05:26.547Z,86.35
2018-04-08T05:07:54.016Z,86.41
2018-04-08T05:10:21.487Z,85.85
2018-04-08T05:12:48.964Z,85.68
2018-04-08T05:15:16.412Z,85.12
2018-04-08T05:17:43.878Z,85.02
2018-04-08T05:20:11.389Z,84.99
2018-04-08T05:22:38.847Z,84.62
2018-04-08T05:25:06.337Z,84.33
2018-04-08T05:27:33.847Z,84.11
2018-04-08T05:30:01.299Z,84.35
2018-04-08T05:32:28.768Z,84.25
2018-04-08T05:34:56.390Z,84.13
2018-04-08T05:37:23.880Z,83.80
2018-04-08T05:39:51.363Z,84.02
2018-04-08T05:42:18.828Z,84.00
2018-04-08T05:44:46.280Z,83.75
2018-04-08T05:47:13.773Z,83.71
2018-04-08T05:49:41.307Z,83.39
2018-04-08T05:52:08.807Z,83.33
2018-04-08T05:54:36.278Z,82.72
2018-04-08T05:57:03.768Z,82.57
2018-04-08T05:59:31.267Z,82.16
2018-04-08T06:01:58.775Z,81.35
2018-04-08T06:04:26.302Z,80.49
2018-04-08T06:06:53.785Z,79.85
2018-04-08T06:09:21.361Z,79.03
2018-04-08T06:11:48.824Z,78.09
2018-04-08T06:14:16.315Z,77.96
2018-04-08T06:16:43.880Z,77.31
2018-04-08T06:19:11.329Z,76.44
2018-04-08T06:21:38.792Z,75.77
2018-04-08T06:24:06.268Z,75.63
2018-04-08T06:26:33.883Z,74.49
2018-04-08T06:29:01.364Z,75.23
2018-04-08T06:31:28.833Z,75.50
2018-04-08T06:33:56.325Z,76.02
2018-04-08T06:36:23.818Z,76.31
2018-04-08T06:38:51.305Z,76.73
2018-04-08T06:41:19.766Z,76.88
2018-04-08T06:43:47.288Z,76.86
2018-04-08T06:46:14.851Z,76.52
2018-04-08T06:48:42.340Z,77.00
2018-04-08T06:51:09.847Z,76.57
2018-04-08T06:53:37.393Z,76.31
2018-04-08T06:56:04.993Z,76.30
2018-04-08T06:58:32.658Z,75.93
2018-04-08T07:01:00.237Z,75.30
2018-04-08T07:03:27.899Z,74.53
2018-04-08T07:05:55.448Z,74.13
2018-04-08T07:08:23.012Z,74.24
2018-04-08T07:10:50.546Z,73.56
2018-04-08T07:13:18.024Z,73.42
2018-04-08T07:15:45.675Z,72.99
2018-04-08T07:18:13.301Z,72.71
2018-04-08T07:20:40.917Z,72.07
2018-04-08T07:23:08.409Z,72.14
2018-04-08T07:25:36.027Z,71.89
2018-04-08T07:28:03.555Z,71.55
2018-04-08T07:30:31.044Z,71.45
2018-04-08T07:32:58.587Z,70.96
2018-04-08T07:35:26.069Z,70.88
2018-04-08T07:37:53.544Z,70.17
2018-04-08T07:40:21.178Z,70.06
2018-04-08T07:42:48.761Z,70.30
2018-04-08T07:45:16.249Z,70.09
2018-04-08T07:47:43.827Z,69.47
2018-04-08T07:50:11.329Z,69.65
2018-04-08T07:52:38.910Z,69.75
2018-04-08T07:55:06.387Z,69.33
2018-04-08T07:57:35.295Z,68.95
2018-04-08T08:00:02.877Z,68.50
2018-04-08T08:02:30.405Z,68.48
2018-04-08T08:04:57.889Z,68.67
2018-04-08T08:07:25.408Z,68.17
2018-04-08T08:09:52.914Z,67.77
2018-04-08T08:12:20.426Z,67.61
2018-04-08T08:14:47.909Z,67.58
2018-04-08T08:17:15.379Z,67.40
2018-04-08T08:19:42.888Z,67.19
2018-04-08T08:22:10.403Z,67.26
2018-04-08T08:24:37.900Z,66.86
2018-04-08T08:27:05.390Z,66.71
2018-04-08T08:29:32.868Z,66.58
2018-04-08T08:32:00.733Z,65.95
2018-04-08T08:34:28.228Z,65.49
2018-04-08T08:36:55.737Z,65.41
2018-04-08T08:39:23.265Z,65.08
2018-04-08T08:41:50.779Z,64.44
2018-04-08T08:44:18.272Z,63.29
2018-04-08T08:46:45.827Z,62.97
2018-04-08T08:49:13.424Z,63.35
2018-04-08T08:51:40.901Z,63.58
2018-04-08T08:54:08.397Z,63.41
2018-04-08T08:56:35.901Z,63.92
2018-04-08T08:59:03.376Z,63.73
2018-04-08T09:01:30.868Z,63.46
2018-04-08T09:03:58.469Z,63.38
2018-04-08T09:06:26.268Z,63.15
2018-04-08T09:08:53.878Z,63.22
2018-04-08T09:11:21.456Z,63.18
2018-04-08T09:13:49.032Z,62.93
2018-04-08T09:16:16.578Z,61.89
2018-04-08T09:18:44.739Z,62.52
2018-04-08T09:21:17.875Z,62.56
2018-04-08T09:23:50.806Z,62.07
2018-04-08T09:26:18.448Z,61.71
2018-04-08T09:28:45.957Z,61.56
2018-04-08T09:31:13.456Z,60.80
2018-04-08T09:33:41.046Z,60.98
2018-04-08T09:36:08.744Z,60.39
2018-04-08T09:38:36.293Z,60.16
2018-04-08T09:41:03.875Z,59.64
2018-04-08T09:43:31.392Z,59.69
2018-04-08T09:45:59.088Z,59.43
2018-04-08T09:48:26.646Z,59.04
2018-04-08T09:50:54.217Z,59.04
2018-04-08T09:53:21.894Z,58.03
2018-04-08T09:55:50.015Z,57.61
2018-04-08T09:58:18.298Z,57.38
2018-04-08T10:03:55.311Z,56.69
2018-04-08T10:06:23.629Z,56.65
2018-04-08T10:08:51.286Z,56.60
2018-04-08T10:11:18.851Z,56.44
2018-04-08T10:13:46.437Z,55.92
2018-04-08T10:16:14.078Z,55.58
2018-04-08T10:18:41.675Z,55.52
2018-04-08T10:21:09.372Z,55.51
2018-04-08T10:23:37.054Z,55.22
2018-04-08T10:26:05.113Z,55.11
2018-04-08T10:28:35.744Z,54.88
2018-04-08T10:31:03.272Z,55.12
2018-04-08T10:33:30.837Z,55.28
2018-04-08T10:35:58.339Z,55.19
2018-04-08T10:38:25.972Z,55.21
2018-04-08T10:40:53.474Z,54.89
2018-04-08T10:43:20.985Z,54.66
2018-04-08T10:45:48.633Z,54.00
2018-04-08T10:48:16.156Z,53.96
2018-04-08T10:50:43.750Z,53.58
2018-04-08T10:53:11.384Z,53.54
2018-04-08T10:55:38.879Z,52.86
2018-04-08T10:58:06.348Z,52.28
2018-04-08T11:00:33.915Z,51.61
2018-04-08T11:03:01.400Z,51.39
2018-04-08T11:05:28.898Z,51.53
2018-04-08T11:07:56.369Z,51.08
2018-04-08T11:10:23.836Z,50.80
2018-04-08T11:12:51.336Z,50.23
2018-04-08T11:15:18.838Z,49.83
2018-04-08T11:17:46.313Z,49.90
2018-04-08T11:20:13.817Z,47.81
2018-04-08T11:22:41.572Z,46.72
2018-04-08T11:25:09.060Z,46.40
2018-04-08T11:27:36.590Z,45.74
2018-04-08T11:30:04.151Z,45.50
2018-04-08T11:32:31.657Z,44.70
2018-04-08T11:34:59.271Z,43.97
2018-04-08T11:37:26.749Z,43.13
2018-04-08T11:39:54.290Z,43.21
2018-04-08T11:42:21.783Z,43.12
2018-04-08T11:44:49.285Z,43.00
2018-04-08T11:47:16.825Z,42.14
2018-04-08T11:49:44.329Z,41.12
2018-04-08T11:52:11.912Z,41.02
2018-04-08T11:54:39.373Z,40.81
2018-04-08T11:57:06.845Z,40.63
2018-04-08T11:59:34.333Z,40.04
2018-04-08T12:02:01.834Z,40.07
2018-04-08T12:04:29.468Z,39.44
2018-04-08T12:06:57.059Z,39.30
2018-04-08T12:09:24.538Z,39.43
2018-04-08T12:11:52.025Z,39.23
2018-04-08T12:14:19.512Z,38.52
2018-04-08T12:16:46.971Z,38.09
2018-04-08T12:19:14.499Z,38.05
2018-04-08T12:21:41.982Z,38.03
2018-04-08T12:24:09.464Z,37.57
2018-04-08T12:26:42.595Z,37.21
2018-04-08T12:29:10.132Z,36.77
2018-04-08T12:31:37.615Z,36.67
2018-04-08T12:34:05.145Z,35.73
2018-04-08T12:36:32.650Z,35.71
2018-04-08T12:39:00.138Z,35.40
2018-04-08T12:41:27.605Z,35.31
2018-04-08T12:43:55.151Z,35.04
2018-04-08T12:46:22.638Z,34.67
2018-04-08T12:48:50.104Z,33.95
2018-04-08T12:51:17.606Z,33.82
2018-04-08T12:53:45.079Z,33.71
2018-04-08T12:56:12.532Z,32.70
2018-04-08T12:58:40.011Z,32.93
2018-04-08T13:01:07.549Z,32.34
2018-04-08T13:03:35.021Z,32.24
2018-04-08T13:06:02.489Z,31.78
2018-04-08T13:08:29.964Z,31.47
2018-04-08T13:10:57.467Z,30.66
2018-04-08T13:13:24.954Z,30.72
2018-04-08T13:15:52.448Z,30.55
2018-04-08T13:18:19.960Z,29.50
2018-04-08T13:20:47.438Z,30.23
2018-04-08T13:23:14.913Z,30.19
2018-04-08T13:25:42.439Z,29.48
2018-04-08T13:28:09.919Z,27.38
2018-04-08T13:30:37.377Z,27.67
2018-04-08T13:33:04.891Z,27.44
2018-04-08T13:35:32.370Z,27.30
2018-04-08T13:37:59.827Z,27.44
2018-04-08T13:40:27.303Z,27.59
2018-04-08T13:42:54.813Z,27.20
2018-04-08T13:45:22.313Z,26.69
2018-04-08T13:47:49.878Z,27.28
2018-04-08T13:50:17.323Z,26.46
2018-04-08T13:52:44.792Z,26.28
2018-04-08T13:55:12.250Z,26.18
2018-04-08T13:57:39.740Z,25.43
2018-04-08T14:00:07.225Z,25.51
2018-04-08T14:02:34.687Z,25.22
2018-04-08T14:05:02.162Z,24.59
2018-04-08T14:07:29.631Z,24.35
2018-04-08T14:09:57.706Z,24.17
2018-04-08T14:12:25.188Z,24.29
2018-04-08T14:14:52.667Z,23.25
2018-04-08T14:17:20.766Z,22.48
2018-04-08T14:19:48.314Z,22.57
2018-04-08T14:22:15.793Z,21.46
2018-04-08T14:24:43.294Z,21.11
2018-04-08T14:27:10.755Z,20.69
2018-04-08T14:29:38.235Z,20.69
2018-04-08T14:32:05.698Z,20.24
2018-04-08T14:34:33.162Z,21.03
2018-04-08T14:37:00.641Z,20.72
2018-04-08T14:39:28.117Z,21.20
2018-04-08T14:41:55.570Z,21.48
2018-04-08T14:44:23.065Z,21.16
2018-04-08T14:46:50.521Z,21.00
2018-04-08T14:49:18.010Z,20.11
2018-04-08T14:51:45.495Z,18.92
2018-04-08T14:54:12.940Z,19.14
2018-04-08T14:56:40.420Z,19.05
2018-04-08T14:59:08.886Z,18.87
2018-04-08T15:01:36.921Z,18.35
2018-04-08T15:04:04.385Z,18.18
2018-04-08T15:06:31.851Z,17.92
2018-04-08T15:08:59.339Z,18.06
2018-04-08T15:11:26.833Z,19.15
2018-04-08T15:13:54.316Z,18.57
2018-04-08T15:16:21.806Z,18.64
2018-04-08T15:18:49.280Z,19.06
2018-04-08T15:21:16.751Z,18.69
2018-04-08T15:23:44.272Z,19.10
2018-04-08T15:26:11.745Z,18.96
2018-04-08T15:28:39.231Z,19.08
2018-04-08T15:31:06.710Z,18.84
2018-04-08T15:33:34.372Z,18.95
2018-04-08T15:36:01.895Z,19.27
2018-04-08T15:38:29.360Z,19.58
2018-04-08T15:40:56.900Z,19.30
2018-04-08T15:43:24.430Z,19.41
2018-04-08T15:45:51.879Z,19.58
2018-04-08T15:48:26.596Z,20.26
2018-04-08T15:50:54.139Z,20.55
2018-04-08T15:53:21.667Z,21.05
2018-04-08T15:55:49.127Z,21.23
2018-04-08T15:58:16.599Z,20.53
2018-04-08T16:00:44.074Z,19.80
2018-04-08T16:03:11.527Z,20.15
2018-04-08T16:05:39.023Z,20.91
2018-04-08T16:08:07.413Z,21.20
2018-04-08T16:10:34.877Z,20.90
2018-04-08T16:13:02.394Z,21.46
2018-04-08T16:15:29.859Z,22.44
2018-04-08T16:17:57.348Z,21.86
2018-04-08T16:20:25.332Z,21.88
2018-04-08T16:22:52.806Z,22.36
2018-04-08T16:25:20.317Z,22.32
2018-04-08T16:27:47.794Z,22.70
2018-04-08T16:30:15.280Z,22.90
2018-04-08T16:32:42.764Z,23.25
2018-04-08T16:35:10.228Z,22.99
2018-04-08T16:37:37.691Z,22.96
2018-04-08T16:40:05.159Z,23.54
2018-04-08T16:42:32.639Z,24.10
2018-04-08T16:45:00.170Z,24.14
2018-04-08T16:47:27.643Z,24.72
2018-04-08T16:49:55.091Z,25.88
2018-04-08T16:52:22.644Z,26.30
2018-04-08T16:54:50.133Z,26.87
2018-04-08T16:57:17.590Z,27.00
2018-04-08T16:59:45.116Z,27.55
2018-04-08T17:02:12.607Z,28.39
2018-04-08T17:04:40.101Z,29.71
2018-04-08T17:07:07.595Z,30.76
2018-04-08T17:09:35.051Z,31.56
2018-04-08T17:12:02.554Z,32.68
2018-04-08T17:14:30.055Z,33.78
2018-04-08T17:16:57.519Z,34.63
2018-04-08T17:19:25.019Z,35.97
2018-04-08T17:21:52.605Z,36.77
2018-04-08T17:24:20.619Z,37.39
2018-04-08T17:26:48.244Z,38.50
2018-04-08T17:29:15.797Z,39.01
2018-04-08T17:31:43.372Z,39.66
2018-04-08T17:34:10.936Z,40.26
2018-04-08T17:36:38.423Z,40.22
2018-04-08T17:39:06.696Z,41.06
2018-04-08T17:41:34.180Z,41.51
2018-04-08T17:44:01.778Z,42.15
2018-04-08T17:46:29.335Z,42.63
2018-04-08T17:48:56.897Z,43.17
2018-04-08T17:51:24.500Z,43.45
2018-04-08T17:53:52.245Z,43.92
2018-04-08T17:56:19.795Z,44.36
2018-04-08T17:58:47.287Z,44.63
2018-04-08T18:01:14.886Z,45.14
2018-04-08T18:03:42.433Z,45.47
2018-04-08T18:06:10.152Z,45.58
2018-04-08T18:08:37.776Z,45.89
2018-04-08T18:11:05.294Z,46.03
2018-04-08T18:13:32.821Z,46.30
2018-04-08T18:16:00.355Z,46.81
2018-04-08T18:18:27.879Z,46.83
2018-04-08T18:20:55.401Z,46.78
2018-04-08T18:23:22.891Z,47.08
2018-04-08T18:25:50.388Z,46.96
2018-04-08T18:28:21.225Z,46.97
2018-04-08T18:30:48.716Z,46.91
2018-04-08T18:33:16.295Z,46.81
2018-04-08T18:35:43.777Z,46.89
2018-04-08T18:38:11.308Z,46.94
2018-04-08T18:40:38.808Z,46.87
2018-04-08T18:43:06.322Z,46.96
2018-04-08T18:45:33.833Z,46.92
2018-04-08T18:48:01.353Z,47.10
2018-04-08T18:50:28.836Z,47.28
2018-04-08T18:52:56.360Z,47.12
2018-04-08T18:55:23.812Z,47.11
2018-04-08T18:57:51.310Z,46.89
2018-04-08T19:00:18.810Z,46.93
2018-04-08T19:02:46.287Z,46.72
2018-04-08T19:05:13.873Z,46.89
2018-04-08T19:07:41.397Z,47.11
2018-04-08T19:10:08.950Z,47.24
2018-04-08T19:12:36.430Z,47.22
2018-04-08T19:15:20.741Z,47.10
2018-04-08T19:17:53.804Z,47.23
2018-04-08T19:20:21.359Z,47.27
2018-04-08T19:22:48.853Z,47.44
2018-04-08T19:25:16.404Z,47.39
2018-04-08T19:27:43.913Z,47.46
2018-04-08T19:30:21.814Z,47.29
2018-04-08T19:32:49.356Z,47.19
2018-04-08T19:35:16.871Z,47.24
2018-04-08T19:37:44.421Z,47.27
2018-04-08T19:40:11.966Z,47.57
2018-04-08T19:42:39.483Z,47.49
2018-04-08T19:45:07.005Z,47.34
2018-04-08T19:47:34.503Z,47.27
2018-04-08T19:50:02.014Z,47.19
2018-04-08T19:52:29.515Z,47.35
2018-04-08T19:54:57.189Z,47.59
2018-04-08T19:57:25.868Z,47.89
2018-04-08T19:59:53.695Z,48.11
2018-04-08T20:02:21.179Z,48.47
2018-04-08T20:04:48.673Z,48.46
2018-04-08T20:07:16.174Z,48.62
2018-04-08T20:09:43.658Z,48.96
2018-04-08T20:12:11.150Z,48.95
2018-04-08T20:14:38.673Z,49.08
2018-04-08T20:17:06.170Z,49.17
2018-04-08T20:19:33.682Z,49.12
2018-04-08T20:22:01.234Z,49.25
2018-04-08T20:24:28.721Z,49.31
2018-04-08T20:26:56.276Z,49.42
2018-04-08T20:29:23.799Z,49.45
2018-04-08T20:31:51.328Z,49.34
2018-04-08T20:34:18.817Z,49.59
2018-04-08T20:36:46.324Z,49.52
2018-04-08T20:39:13.833Z,49.53
2018-04-08T20:41:41.352Z,49.64
2018-04-08T20:44:08.849Z,49.82
2018-04-08T20:46:36.342Z,49.71
2018-04-08T20:49:03.889Z,49.77
2018-04-08T20:51:31.371Z,49.83
2018-04-08T20:53:58.876Z,49.62
2018-04-08T20:56:26.357Z,49.53
2018-04-08T20:58:53.892Z,49.46
2018-04-08T21:01:21.358Z,49.70
2018-04-08T21:03:51.410Z,49.69
2018-04-08T21:06:19.013Z,49.87
2018-04-08T21:08:46.519Z,49.77
2018-04-08T21:11:14.010Z,49.64
2018-04-08T21:13:41.493Z,49.96
2018-04-08T21:16:08.982Z,50.07
2018-04-08T21:18:36.457Z,50.13
2018-04-08T21:21:03.961Z,50.00
2018-04-08T21:23:31.513Z,50.00
2018-04-08T21:25:58.997Z,50.16
2018-04-08T21:28:26.531Z,50.21
2018-04-08T21:30:54.048Z,50.10
2018-04-08T21:33:21.541Z,50.05
2018-04-08T21:35:48.992Z,49.71
2018-04-08T21:38:16.488Z,49.84
2018-04-08T21:40:43.971Z,49.77
2018-04-08T21:43:11.459Z,49.97
2018-04-08T21:45:38.944Z,50.19
2018-04-08T21:48:06.412Z,50.28
2018-04-08T21:50:33.897Z,50.22
2018-04-08T21:53:01.371Z,50.27
2018-04-08T21:55:28.829Z,50.15
2018-04-08T21:57:56.305Z,49.94
2018-04-08T22:00:23.964Z,49.67
2018-04-08T22:02:51.437Z,49.59
2018-04-08T22:05:18.903Z,49.94
2018-04-08T22:07:46.417Z,49.91
2018-04-08T22:10:13.886Z,49.54
2018-04-08T22:12:41.387Z,49.44
2018-04-08T22:15:08.901Z,49.70
2018-04-08T22:17:37.003Z,49.57
2018-04-08T22:20:04.470Z,49.62
2018-04-08T22:22:32.411Z,49.66
2018-04-08T22:24:59.851Z,49.71
2018-04-08T22:27:27.307Z,49.56
2018-04-08T22:29:54.776Z,49.86
2018-04-08T22:32:22.298Z,49.63
2018-04-08T22:34:49.755Z,49.80
2018-04-08T22:37:17.539Z,49.68
2018-04-08T22:39:45.035Z,49.83
2018-04-08T22:42:12.508Z,49.75
2018-04-08T22:44:39.982Z,49.75
2018-04-08T22:47:07.433Z,49.73
2018-04-08T22:49:34.907Z,49.89
2018-04-08T22:52:02.444Z,49.82
2018-04-08T22:54:30.559Z,49.80
2018-04-08T22:56:58.035Z,49.67
2018-04-08T22:59:25.510Z,49.65
2018-04-08T23:01:52.978Z,49.55
2018-04-08T23:04:20.471Z,49.57
2018-04-08T23:06:47.965Z,49.90
2018-04-08T23:09:15.436Z,49.54
2018-04-08T23:11:42.902Z,49.81
2018-04-08T23:14:10.369Z,49.96
2018-04-08T23:16:37.837Z,50.34
2018-04-08T23:19:05.296Z,50.43
2018-04-08T23:21:32.839Z,50.55
2018-04-08T23:24:00.303Z,50.43
2018-04-08T23:26:27.762Z,50.44
2018-04-08T23:28:55.258Z,50.20
2018-04-08T23:31:22.760Z,50.35
2018-04-08T23:33:50.237Z,50.35
2018-04-08T23:36:17.710Z,50.26
2018-04-08T23:38:45.497Z,50.16
2018-04-08T23:41:12.967Z,50.14
2018-04-08T23:43:40.423Z,50.36
2018-04-08T23:46:07.912Z,50.41
2018-04-08T23:48:35.444Z,50.48
2018-04-08T23:51:02.933Z,50.75
2018-04-08T23:53:30.414Z,50.52
2018-04-08T23:55:57.890Z,50.50
2018-04-08T23:58:25.330Z,50.81
